Terminal Aerodrome Forecast
Issued by NWS Corpus Christi, TX

Home | Current Version | Previous Version | Text Only | Print | Product List | Glossary On
Versions: 1 2 3 4 5 6 7 8 9 10 11 12 13 14 15 16 17 18 19
000
FTUS44 KCRP 221700
TAFVCT
TAF
KVCT 221740Z 2218/2318 21012KT P6SM FEW015 BKN150
      TEMPO 2218/2220 BKN015 OVC150
     FM230100 18005KT P6SM SCT015 BKN150
     FM230500 15004KT 2SM BR OVC006
     FM230800 11004KT 1SM BR OVC002
     FM231300 33005KT 2SM BR OVC008
     FM231600 33014G18KT P6SM VCSH BKN015 OVC130=

USA.gov is the U.S. government's official web portal to all federal, state and local government web resources and services.